Time;durP1;ratioP1;P1;durP2;ratioP2;P2;SDS_P1;SDS_P2;PMS_P1;PMS_P2;Temp;Humidity;BMP_temperature;BMP_pressure;BME280_temperature;BME280_humidity;BME280_pressure;Samples;Min_cycle;Max_cycle;Signal;HPM_P1;HPM_P2
2021/08/25 00:00:43;;;;;;;4.82;1.50;;;;;;;;;;6125845;23;20761;-72
2021/08/25 00:03:09;;;;;;;4.30;1.00;;;;;;;;;;6125811;23;20022;-74
2021/08/25 00:05:34;;;;;;;1.40;0.80;;;;;;;;;;6126046;23;20084;-71
2021/08/25 00:08:00;;;;;;;5.10;1.00;;;;;;;;;;6125875;23;19998;-72
2021/08/25 00:10:25;;;;;;;2.95;0.77;;;;;;;;;;6099870;23;19998;-72
2021/08/25 00:12:51;;;;;;;4.07;1.15;;;;;;;;;;6125845;23;20005;-72
2021/08/25 00:15:16;;;;;;;1.20;1.02;;;;;;;;;;6125956;23;20080;-74
2021/08/25 00:17:41;;;;;;;1.05;0.90;;;;;;;;;;6126399;23;20028;-72
2021/08/25 00:20:07;;;;;;;1.08;0.93;;;;;;;;;;6126350;23;20029;-71
2021/08/25 00:22:33;;;;;;;1.40;0.90;;;;;;;;;;6126079;23;20010;-74
2021/08/25 00:24:58;;;;;;;6.50;1.30;;;;;;;;;;6126495;23;20041;-72
2021/08/25 00:27:24;;;;;;;2.35;0.90;;;;;;;;;;6125791;23;20033;-72
2021/08/25 00:29:49;;;;;;;1.10;0.90;;;;;;;;;;6125576;23;20030;-73
2021/08/25 00:32:14;;;;;;;1.52;0.95;;;;;;;;;;6126376;23;20383;-74
2021/08/25 00:34:40;;;;;;;1.80;0.85;;;;;;;;;;6125923;23;20004;-71
2021/08/25 00:37:05;;;;;;;1.17;0.88;;;;;;;;;;6076074;23;20002;-72
2021/08/25 00:39:32;;;;;;;1.10;0.90;;;;;;;;;;6126042;23;20108;-74
2021/08/25 00:41:57;;;;;;;4.53;1.00;;;;;;;;;;6125369;23;20006;-72
2021/08/25 00:44:22;;;;;;;1.70;0.90;;;;;;;;;;6099839;23;19994;-70
2021/08/25 00:46:48;;;;;;;4.38;1.00;;;;;;;;;;6125856;23;20006;-72
2021/08/25 00:49:16;;;;;;;4.60;1.00;;;;;;;;;;6125814;23;20092;-71
2021/08/25 00:51:43;;;;;;;1.58;1.02;;;;;;;;;;6125630;23;19995;-71
2021/08/25 00:54:09;;;;;;;2.58;1.00;;;;;;;;;;6125815;23;20013;-73
2021/08/25 00:56:34;;;;;;;0.93;0.85;;;;;;;;;;6099541;23;20006;-72
2021/08/25 00:59:00;;;;;;;1.08;0.90;;;;;;;;;;6099960;23;20034;-72
2021/08/25 01:01:32;;;;;;;1.13;0.93;;;;;;;;;;6125738;23;20009;-70
2021/08/25 01:04:00;;;;;;;1.77;0.98;;;;;;;;;;6099761;23;20324;-75
2021/08/25 01:06:26;;;;;;;1.60;1.30;;;;;;;;;;6125977;23;20005;-73
2021/08/25 01:08:52;;;;;;;3.85;1.17;;;;;;;;;;6125908;23;20002;-72
2021/08/25 01:11:17;;;;;;;1.17;0.98;;;;;;;;;;6100027;23;20160;-72
2021/08/25 01:13:43;;;;;;;2.10;1.02;;;;;;;;;;6125625;23;20008;-73
2021/08/25 01:16:08;;;;;;;1.88;1.10;;;;;;;;;;6099906;23;20462;-73
2021/08/25 01:18:34;;;;;;;4.43;0.90;;;;;;;;;;6125652;23;19998;-73
2021/08/25 01:21:00;;;;;;;1.42;1.00;;;;;;;;;;6126093;23;20037;-74
2021/08/25 01:23:26;;;;;;;2.33;1.10;;;;;;;;;;6100003;23;20364;-72
2021/08/25 01:25:56;;;;;;;3.42;1.23;;;;;;;;;;6125477;23;20005;-71
2021/08/25 01:28:23;;;;;;;1.98;1.30;;;;;;;;;;6125620;23;20002;-69
2021/08/25 01:30:49;;;;;;;3.33;1.00;;;;;;;;;;6125840;23;20006;-72
2021/08/25 01:33:21;;;;;;;2.67;0.95;;;;;;;;;;6125880;23;20041;-73
2021/08/25 01:35:47;;;;;;;1.60;1.00;;;;;;;;;;6125739;23;19998;-71
2021/08/25 01:38:19;;;;;;;1.15;0.93;;;;;;;;;;6099764;23;20056;-71
2021/08/25 01:40:44;;;;;;;2.08;1.15;;;;;;;;;;6125602;23;19998;-73
2021/08/25 01:43:10;;;;;;;1.75;1.20;;;;;;;;;;6127144;23;20005;-76
2021/08/25 01:45:35;;;;;;;2.17;1.35;;;;;;;;;;6127212;23;19993;-73
2021/08/25 01:48:01;;;;;;;3.45;1.23;;;;;;;;;;6101366;23;20009;-71
2021/08/25 01:50:26;;;;;;;2.13;1.00;;;;;;;;;;6127295;23;20026;-74
2021/08/25 01:52:52;;;;;;;2.22;1.13;;;;;;;;;;6127214;23;19998;-71
2021/08/25 01:55:17;;;;;;;1.08;0.93;;;;;;;;;;6101254;23;20368;-71
2021/08/25 01:57:43;;;;;;;1.08;0.93;;;;;;;;;;6126968;23;20008;-70
2021/08/25 02:00:09;;;;;;;1.20;1.10;;;;;;;;;;6127306;23;20385;-72
2021/08/25 02:02:34;;;;;;;1.52;1.13;;;;;;;;;;6126369;23;20104;-73
2021/08/25 02:05:00;;;;;;;2.25;1.20;;;;;;;;;;6127309;23;20084;-71
2021/08/25 02:07:25;;;;;;;1.85;1.20;;;;;;;;;;6101090;23;20121;-73
2021/08/25 02:09:51;;;;;;;5.35;1.35;;;;;;;;;;6126569;23;19998;-71
2021/08/25 02:12:16;;;;;;;3.35;1.30;;;;;;;;;;6127191;23;20002;-70
2021/08/25 02:14:42;;;;;;;4.80;1.20;;;;;;;;;;6126843;23;20318;-75
2021/08/25 02:17:07;;;;;;;1.25;1.08;;;;;;;;;;6127037;23;20002;-74
2021/08/25 02:19:33;;;;;;;1.77;1.55;;;;;;;;;;6126985;23;20424;-74
2021/08/25 02:21:59;;;;;;;3.50;1.38;;;;;;;;;;6126845;23;20002;-71
2021/08/25 02:24:24;;;;;;;2.45;1.50;;;;;;;;;;6126837;23;20053;-72
2021/08/25 02:26:50;;;;;;;2.83;1.50;;;;;;;;;;6126834;23;20450;-71
2021/08/25 02:29:15;;;;;;;2.40;1.70;;;;;;;;;;6126784;23;19994;-73
2021/08/25 02:31:40;;;;;;;5.82;1.95;;;;;;;;;;6126594;23;20415;-72
2021/08/25 02:34:06;;;;;;;3.58;1.92;;;;;;;;;;6100847;23;20002;-71
2021/08/25 02:36:31;;;;;;;5.65;1.85;;;;;;;;;;6126828;23;20491;-70
2021/08/25 02:38:57;;;;;;;2.80;1.77;;;;;;;;;;6126576;23;19998;-71
2021/08/25 02:41:22;;;;;;;5.93;1.92;;;;;;;;;;6126845;23;20014;-72
2021/08/25 02:43:48;;;;;;;3.67;1.92;;;;;;;;;;6126385;23;20431;-71
2021/08/25 02:46:13;;;;;;;3.70;2.67;;;;;;;;;;6126777;23;19998;-71
2021/08/25 02:48:39;;;;;;;3.42;2.20;;;;;;;;;;6126613;23;19998;-72
2021/08/25 02:51:04;;;;;;;4.88;2.38;;;;;;;;;;6126806;23;20020;-70
2021/08/25 02:53:30;;;;;;;3.03;2.08;;;;;;;;;;6126307;23;20069;-73
2021/08/25 02:55:55;;;;;;;4.70;2.40;;;;;;;;;;6100186;23;20047;-71
2021/08/25 02:58:20;;;;;;;5.97;1.95;;;;;;;;;;6126556;23;20004;-73
2021/08/25 03:00:46;;;;;;;6.18;2.08;;;;;;;;;;6126220;23;20002;-70
2021/08/25 03:03:11;;;;;;;4.28;2.13;;;;;;;;;;6095917;23;20052;-70
2021/08/25 03:05:37;;;;;;;3.50;1.92;;;;;;;;;;6097529;23;20048;-72
2021/08/25 03:08:02;;;;;;;2.75;2.03;;;;;;;;;;6097351;23;20393;-72
2021/08/25 03:10:28;;;;;;;5.40;2.20;;;;;;;;;;6097245;23;20053;-72
2021/08/25 03:12:53;;;;;;;6.63;2.15;;;;;;;;;;6097276;23;20046;-70
2021/08/25 03:15:18;;;;;;;3.40;2.15;;;;;;;;;;6097279;23;20002;-70
2021/08/25 03:17:44;;;;;;;3.95;2.50;;;;;;;;;;6097266;23;19998;-70
2021/08/25 03:20:11;;;;;;;3.47;2.03;;;;;;;;;;6097553;23;19994;-73
2021/08/25 03:22:36;;;;;;;3.58;2.20;;;;;;;;;;6070707;23;20042;-72
2021/08/25 03:25:03;;;;;;;2.25;1.65;;;;;;;;;;6092858;23;20002;-71
2021/08/25 03:27:28;;;;;;;2.60;1.90;;;;;;;;;;6097054;23;20002;-71
2021/08/25 03:29:54;;;;;;;6.68;2.78;;;;;;;;;;6096880;23;20425;-73
2021/08/25 03:32:19;;;;;;;4.05;2.20;;;;;;;;;;6096887;23;20006;-72
2021/08/25 03:34:45;;;;;;;3.92;1.90;;;;;;;;;;6096856;23;20008;-73
2021/08/25 03:37:10;;;;;;;3.20;2.08;;;;;;;;;;6097193;23;20005;-73
2021/08/25 03:39:35;;;;;;;4.82;2.28;;;;;;;;;;6096730;23;20041;-70
2021/08/25 03:42:01;;;;;;;3.60;2.20;;;;;;;;;;6096780;23;20073;-72
2021/08/25 03:44:27;;;;;;;3.90;2.10;;;;;;;;;;6096848;23;20332;-72
2021/08/25 03:46:52;;;;;;;5.85;2.17;;;;;;;;;;6096729;23;19994;-73
2021/08/25 03:49:17;;;;;;;2.63;2.10;;;;;;;;;;6097113;23;20033;-72
2021/08/25 03:51:43;;;;;;;3.33;1.80;;;;;;;;;;6096844;23;20002;-71
2021/08/25 03:54:09;;;;;;;3.33;1.85;;;;;;;;;;6096410;23;20073;-72
2021/08/25 03:56:34;;;;;;;2.75;1.77;;;;;;;;;;6096681;23;20025;-74
2021/08/25 03:58:59;;;;;;;5.88;2.33;;;;;;;;;;6096611;23;20005;-71
2021/08/25 04:01:25;;;;;;;3.42;2.25;;;;;;;;;;6097046;23;20007;-72
2021/08/25 04:03:50;;;;;;;4.50;1.92;;;;;;;;;;6118623;23;20009;-70
2021/08/25 04:06:16;;;;;;;5.88;1.73;;;;;;;;;;6100115;23;20002;-72
2021/08/25 04:08:41;;;;;;;3.08;1.88;;;;;;;;;;6126126;23;19998;-73
2021/08/25 04:11:06;;;;;;;3.28;1.98;;;;;;;;;;6125959;23;20021;-71
2021/08/25 04:13:32;;;;;;;4.32;2.13;;;;;;;;;;6100443;23;20008;-70
2021/08/25 04:15:57;;;;;;;5.30;1.80;;;;;;;;;;6125690;23;20086;-70
2021/08/25 04:18:23;;;;;;;2.40;1.50;;;;;;;;;;6099820;23;20002;-72
2021/08/25 04:20:48;;;;;;;2.75;2.10;;;;;;;;;;6125733;23;20048;-69
2021/08/25 04:23:14;;;;;;;2.35;1.80;;;;;;;;;;6125946;23;19998;-74
2021/08/25 04:25:41;;;;;;;3.88;2.08;;;;;;;;;;6125442;23;20446;-74
2021/08/25 04:28:08;;;;;;;3.80;2.33;;;;;;;;;;6125633;23;20327;-73
2021/08/25 04:30:34;;;;;;;3.78;2.03;;;;;;;;;;6125755;23;20020;-74
2021/08/25 04:32:59;;;;;;;3.13;2.00;;;;;;;;;;6126175;23;19998;-73
2021/08/25 04:35:24;;;;;;;4.63;2.20;;;;;;;;;;6125773;23;19994;-72
2021/08/25 04:37:50;;;;;;;5.30;2.05;;;;;;;;;;6125413;23;20001;-72
2021/08/25 04:40:15;;;;;;;3.67;1.90;;;;;;;;;;6125565;23;19998;-72
2021/08/25 04:42:40;;;;;;;4.90;2.13;;;;;;;;;;6125419;23;20320;-70
2021/08/25 04:45:06;;;;;;;3.85;2.00;;;;;;;;;;6125584;23;20001;-71
2021/08/25 04:47:31;;;;;;;5.22;1.73;;;;;;;;;;6099573;23;20057;-74
2021/08/25 04:49:57;;;;;;;3.40;2.00;;;;;;;;;;6125517;23;20060;-72
2021/08/25 04:52:22;;;;;;;3.78;2.00;;;;;;;;;;6125811;23;20378;-74
2021/08/25 04:54:48;;;;;;;6.18;2.63;;;;;;;;;;6125444;23;20001;-72
2021/08/25 04:57:13;;;;;;;4.13;2.60;;;;;;;;;;6125423;23;20068;-71
2021/08/25 04:59:44;;;;;;;3.58;2.10;;;;;;;;;;6125326;23;20041;-73
2021/08/25 05:02:10;;;;;;;3.38;2.35;;;;;;;;;;6125094;23;20447;-73
2021/08/25 05:04:35;;;;;;;3.92;2.10;;;;;;;;;;6125556;23;20182;-71
2021/08/25 05:07:01;;;;;;;5.07;2.10;;;;;;;;;;6100098;23;20064;-73
2021/08/25 05:09:26;;;;;;;4.10;1.92;;;;;;;;;;6125376;23;20371;-71
2021/08/25 05:11:52;;;;;;;5.13;1.92;;;;;;;;;;6125642;23;20128;-73
2021/08/25 05:14:17;;;;;;;3.33;2.10;;;;;;;;;;6125881;23;20009;-73
2021/08/25 05:16:43;;;;;;;5.38;2.10;;;;;;;;;;6125483;23;20033;-73
2021/08/25 05:19:08;;;;;;;3.40;1.95;;;;;;;;;;6127475;23;19998;-73
2021/08/25 05:21:34;;;;;;;4.55;2.45;;;;;;;;;;6127240;23;20432;-74
2021/08/25 05:24:01;;;;;;;2.92;1.98;;;;;;;;;;6127121;23;20363;-70
2021/08/25 05:26:27;;;;;;;6.15;2.25;;;;;;;;;;6127506;23;19998;-71
2021/08/25 05:28:52;;;;;;;3.88;2.42;;;;;;;;;;6128937;23;20324;-73
2021/08/25 05:31:18;;;;;;;2.85;2.00;;;;;;;;;;6127173;23;20002;-75
2021/08/25 05:33:43;;;;;;;3.30;2.00;;;;;;;;;;6101304;23;20470;-72
2021/08/25 05:36:08;;;;;;;5.28;2.83;;;;;;;;;;6127293;23;20005;-73
2021/08/25 05:38:34;;;;;;;5.90;2.20;;;;;;;;;;6100967;23;20009;-71
2021/08/25 05:41:02;;;;;;;4.53;1.92;;;;;;;;;;6126947;23;19997;-73
2021/08/25 05:43:28;;;;;;;5.30;2.00;;;;;;;;;;6127159;23;20040;-76
2021/08/25 05:45:54;;;;;;;3.90;1.95;;;;;;;;;;6125544;23;20370;-70
2021/08/25 05:48:19;;;;;;;4.82;2.30;;;;;;;;;;6126767;23;20416;-70
2021/08/25 05:50:44;;;;;;;3.75;2.03;;;;;;;;;;6126653;23;20057;-72
2021/08/25 05:53:10;;;;;;;4.80;2.00;;;;;;;;;;6126731;23;20086;-71
2021/08/25 05:55:37;;;;;;;3.65;1.98;;;;;;;;;;6126524;23;19998;-70
2021/08/25 05:58:03;;;;;;;4.38;1.80;;;;;;;;;;6125006;23;20074;-71
2021/08/25 06:00:29;;;;;;;3.83;2.13;;;;;;;;;;6123913;23;20002;-70
2021/08/25 06:02:54;;;;;;;3.65;2.15;;;;;;;;;;6124364;23;20029;-69
2021/08/25 06:05:19;;;;;;;9.50;2.13;;;;;;;;;;6125638;23;20009;-69
2021/08/25 06:07:45;;;;;;;3.45;1.92;;;;;;;;;;6124237;23;19998;-67
2021/08/25 06:10:10;;;;;;;2.95;2.03;;;;;;;;;;6124389;23;20459;-68
2021/08/25 06:12:35;;;;;;;4.30;2.13;;;;;;;;;;6125891;23;20060;-67
2021/08/25 06:15:01;;;;;;;8.15;1.80;;;;;;;;;;6126269;23;20312;-67
2021/08/25 06:17:26;;;;;;;3.95;2.00;;;;;;;;;;6126195;23;19997;-68
2021/08/25 06:19:52;;;;;;;4.28;2.08;;;;;;;;;;6125596;23;20002;-68
2021/08/25 06:22:17;;;;;;;4.70;1.55;;;;;;;;;;6126425;23;20001;-66
2021/08/25 06:24:42;;;;;;;6.45;2.13;;;;;;;;;;6124911;23;20061;-67
2021/08/25 06:27:08;;;;;;;4.93;1.85;;;;;;;;;;6125113;23;20002;-66
2021/08/25 06:29:33;;;;;;;3.75;1.85;;;;;;;;;;6125589;23;20025;-66
2021/08/25 06:31:59;;;;;;;2.20;1.70;;;;;;;;;;6125323;23;20005;-66
2021/08/25 06:34:24;;;;;;;4.13;2.05;;;;;;;;;;6125287;23;20059;-67
2021/08/25 06:36:49;;;;;;;2.78;1.88;;;;;;;;;;6125701;23;19998;-66
2021/08/25 06:39:15;;;;;;;2.30;1.52;;;;;;;;;;6125640;23;20072;-67
2021/08/25 06:41:40;;;;;;;6.00;1.75;;;;;;;;;;6124649;23;20050;-67
2021/08/25 06:44:06;;;;;;;3.03;1.80;;;;;;;;;;6125234;23;20000;-67
2021/08/25 06:46:31;;;;;;;3.08;1.48;;;;;;;;;;6099303;23;20025;-70
2021/08/25 06:48:57;;;;;;;4.07;1.95;;;;;;;;;;6125247;23;20002;-66
2021/08/25 06:51:22;;;;;;;35.90;5.38;;;;;;;;;;6125104;23;20005;-65
2021/08/25 06:53:48;;;;;;;14.02;3.20;;;;;;;;;;6125206;23;19998;-65
2021/08/25 06:56:13;;;;;;;15.82;3.60;;;;;;;;;;6098921;23;20060;-66
2021/08/25 06:58:38;;;;;;;6.18;2.10;;;;;;;;;;6125597;23;20002;-67
2021/08/25 07:01:04;;;;;;;9.00;2.33;;;;;;;;;;6125111;23;20012;-69
2021/08/25 07:03:29;;;;;;;7.25;2.58;;;;;;;;;;6123191;23;20057;-66
2021/08/25 07:05:54;;;;;;;6.53;2.22;;;;;;;;;;6124707;23;20010;-65
2021/08/25 07:08:20;;;;;;;4.15;1.67;;;;;;;;;;6123518;23;20072;-67
2021/08/25 07:10:45;;;;;;;7.68;2.00;;;;;;;;;;6123549;23;20408;-70
2021/08/25 07:13:11;;;;;;;5.78;2.45;;;;;;;;;;6124703;23;20025;-71
2021/08/25 07:15:36;;;;;;;6.50;2.13;;;;;;;;;;6120786;23;20461;-68
2021/08/25 07:18:01;;;;;;;12.88;2.47;;;;;;;;;;6123738;23;19998;-69
2021/08/25 07:20:27;;;;;;;3.78;1.80;;;;;;;;;;6124250;23;20001;-70
2021/08/25 07:22:52;;;;;;;5.93;2.05;;;;;;;;;;6123470;23;20042;-70
2021/08/25 07:25:17;;;;;;;3.60;1.85;;;;;;;;;;6124146;23;20152;-70
2021/08/25 07:27:43;;;;;;;5.28;2.00;;;;;;;;;;6124338;23;20001;-69
2021/08/25 07:30:09;;;;;;;4.65;2.08;;;;;;;;;;6122844;23;20002;-68
2021/08/25 07:32:35;;;;;;;4.20;1.88;;;;;;;;;;6123126;23;20335;-69
2021/08/25 07:35:01;;;;;;;3.03;1.58;;;;;;;;;;6124608;23;20002;-69
2021/08/25 07:37:26;;;;;;;5.55;1.83;;;;;;;;;;6124474;23;20427;-68
2021/08/25 07:39:51;;;;;;;4.50;1.77;;;;;;;;;;6123346;23;19998;-68
2021/08/25 07:42:17;;;;;;;5.90;2.33;;;;;;;;;;6123808;23;20002;-68
2021/08/25 07:44:42;;;;;;;3.15;1.75;;;;;;;;;;6124736;23;20005;-68
2021/08/25 07:47:08;;;;;;;11.05;2.10;;;;;;;;;;6123946;23;20010;-67
2021/08/25 07:49:33;;;;;;;2.70;1.83;;;;;;;;;;6124659;23;20420;-67
2021/08/25 07:51:59;;;;;;;5.55;2.28;;;;;;;;;;6124079;23;20023;-67
2021/08/25 07:54:24;;;;;;;4.43;1.95;;;;;;;;;;6124529;23;20012;-68
2021/08/25 07:56:52;;;;;;;4.78;1.63;;;;;;;;;;6123787;23;19998;-67
2021/08/25 07:59:17;;;;;;;5.10;1.77;;;;;;;;;;6124493;23;20114;-65
2021/08/25 08:01:42;;;;;;;2.85;1.90;;;;;;;;;;6123214;23;20041;-65
2021/08/25 08:04:08;;;;;;;4.75;1.90;;;;;;;;;;6124023;23;20029;-66
2021/08/25 08:06:33;;;;;;;4.22;2.10;;;;;;;;;;6124739;23;20002;-65
2021/08/25 08:08:59;;;;;;;3.03;1.92;;;;;;;;;;6124267;23;20089;-65
2021/08/25 08:11:24;;;;;;;6.82;1.92;;;;;;;;;;6123252;23;21163;-67
2021/08/25 08:13:49;;;;;;;3.00;1.98;;;;;;;;;;6124297;23;20002;-67
2021/08/25 08:16:20;;;;;;;3.50;1.85;;;;;;;;;;6124721;23;20002;-74
2021/08/25 08:21:18;;;;;;;6.10;1.88;;;;;;;;;;6123621;23;20084;-67
2021/08/25 08:23:43;;;;;;;3.00;1.83;;;;;;;;;;6122592;23;20028;-66
2021/08/25 08:26:09;;;;;;;3.25;2.10;;;;;;;;;;6124287;23;20005;-76
2021/08/25 08:28:34;;;;;;;3.15;1.90;;;;;;;;;;6124622;23;20045;-73
2021/08/25 08:30:59;;;;;;;4.78;1.90;;;;;;;;;;6098548;23;20002;-74
2021/08/25 08:33:25;;;;;;;5.47;1.70;;;;;;;;;;6125131;23;19994;-72
2021/08/25 08:35:50;;;;;;;4.38;2.53;;;;;;;;;;6124646;23;20076;-66
2021/08/25 08:38:15;;;;;;;2.42;1.52;;;;;;;;;;6124703;23;20060;-65
2021/08/25 08:40:41;;;;;;;3.95;2.03;;;;;;;;;;6124389;23;20373;-67
2021/08/25 08:43:08;;;;;;;4.60;2.17;;;;;;;;;;6123941;23;20042;-69
2021/08/25 08:45:36;;;;;;;7.13;2.20;;;;;;;;;;6124742;23;19998;-71
2021/08/25 08:48:02;;;;;;;1.92;1.50;;;;;;;;;;6124615;23;20017;-70
2021/08/25 08:50:27;;;;;;;8.40;2.38;;;;;;;;;;6123808;23;20077;-71
2021/08/25 08:52:53;;;;;;;4.47;1.95;;;;;;;;;;6098134;23;20324;-70
2021/08/25 08:55:18;;;;;;;4.18;2.00;;;;;;;;;;6125440;23;20035;-68
2021/08/25 08:57:44;;;;;;;2.42;1.88;;;;;;;;;;6099751;23;20032;-69
2021/08/25 09:00:10;;;;;;;3.22;2.10;;;;;;;;;;6126068;23;20002;-72
2021/08/25 09:02:36;;;;;;;13.80;2.20;;;;;;;;;;6100347;23;20258;-67
2021/08/25 09:05:06;;;;;;;5.50;2.30;;;;;;;;;;6100393;23;20006;-67
2021/08/25 09:07:32;;;;;;;11.02;3.20;;;;;;;;;;6100660;23;20001;-65
2021/08/25 09:09:58;;;;;;;7.60;3.63;;;;;;;;;;6100306;23;19998;-71
2021/08/25 09:12:24;;;;;;;4.82;1.95;;;;;;;;;;6126629;23;20017;-76
2021/08/25 09:14:50;;;;;;;6.90;2.53;;;;;;;;;;6100981;23;19998;-68
2021/08/25 09:17:29;;;;;;;7.47;2.17;;;;;;;;;;6125727;23;19994;-66
2021/08/25 09:20:05;;;;;;;11.15;1.88;;;;;;;;;;6100406;23;20049;-71
2021/08/25 09:22:30;;;;;;;3.90;2.00;;;;;;;;;;6125756;23;20084;-72
2021/08/25 09:24:56;;;;;;;6.28;2.60;;;;;;;;;;6126241;23;20443;-72
2021/08/25 09:27:22;;;;;;;3.83;2.13;;;;;;;;;;6126019;23;20129;-67
2021/08/25 09:29:54;;;;;;;7.75;2.15;;;;;;;;;;6100384;23;20063;-67
2021/08/25 09:32:21;;;;;;;3.20;2.13;;;;;;;;;;6123790;23;20081;-68
2021/08/25 09:34:53;;;;;;;6.53;2.00;;;;;;;;;;6125049;23;20059;-71
2021/08/25 09:37:19;;;;;;;5.10;2.28;;;;;;;;;;6124834;23;20001;-68
2021/08/25 09:39:45;;;;;;;6.53;1.88;;;;;;;;;;6125698;23;20009;-69
2021/08/25 09:42:11;;;;;;;3.72;1.77;;;;;;;;;;6125681;23;20010;-68
2021/08/25 09:44:36;;;;;;;5.43;1.80;;;;;;;;;;6125947;23;20048;-67
2021/08/25 09:47:02;;;;;;;6.65;2.03;;;;;;;;;;6131015;23;20029;-67
2021/08/25 09:49:27;;;;;;;3.67;1.80;;;;;;;;;;6125825;23;20001;-67
2021/08/25 09:51:54;;;;;;;2.80;1.63;;;;;;;;;;6124980;23;19997;-67
2021/08/25 09:54:20;;;;;;;2.85;1.80;;;;;;;;;;6126306;23;20033;-68
2021/08/25 09:56:45;;;;;;;4.72;2.20;;;;;;;;;;6125879;23;19994;-68
2021/08/25 09:59:12;;;;;;;3.53;2.00;;;;;;;;;;6125482;23;19998;-67
2021/08/25 10:01:38;;;;;;;3.33;2.22;;;;;;;;;;6125249;23;20037;-68
2021/08/25 10:04:04;;;;;;;3.45;1.73;;;;;;;;;;6075073;23;20021;-69
2021/08/25 10:06:29;;;;;;;3.13;2.10;;;;;;;;;;6125179;23;20103;-68
2021/08/25 10:08:55;;;;;;;2.95;1.60;;;;;;;;;;6126249;23;20038;-68
2021/08/25 10:11:22;;;;;;;6.47;2.20;;;;;;;;;;6125781;23;19998;-68
2021/08/25 10:13:47;;;;;;;2.60;2.00;;;;;;;;;;6126570;23;20017;-68
2021/08/25 10:16:33;;;;;;;5.35;1.83;;;;;;;;;;6124698;23;20085;-70
2021/08/25 10:19:17;;;;;;;20.70;2.13;;;;;;;;;;6090921;23;20006;-68
2021/08/25 10:21:42;;;;;;;2.65;1.80;;;;;;;;;;6119412;23;20037;-68
2021/08/25 10:24:08;;;;;;;2.13;1.60;;;;;;;;;;6124036;23;20002;-69
2021/08/25 10:26:53;;;;;;;3.78;2.15;;;;;;;;;;6099375;23;20005;-71
2021/08/25 10:29:19;;;;;;;4.00;1.77;;;;;;;;;;6068674;23;20014;-70
2021/08/25 10:32:03;;;;;;;2.83;1.80;;;;;;;;;;6116063;23;20343;-69
2021/08/25 10:34:30;;;;;;;2.42;1.67;;;;;;;;;;6125319;23;20006;-69
2021/08/25 10:37:19;;;;;;;6.25;2.00;;;;;;;;;;6093592;23;20510;-70
2021/08/25 10:39:45;;;;;;;1.60;1.50;;;;;;;;;;6098328;23;20266;-69
2021/08/25 10:42:10;;;;;;;3.90;1.60;;;;;;;;;;6124266;23;20080;-69
2021/08/25 10:44:45;;;;;;;5.18;1.85;;;;;;;;;;6125136;23;19998;-71
2021/08/25 10:47:12;;;;;;;5.97;1.70;;;;;;;;;;6121598;23;19997;-68
2021/08/25 10:49:39;;;;;;;3.00;1.73;;;;;;;;;;6098133;23;20005;-68
2021/08/25 10:52:24;;;;;;;3.35;2.20;;;;;;;;;;6098915;23;20005;-68
2021/08/25 10:54:50;;;;;;;2.10;1.67;;;;;;;;;;6099054;23;20009;-68
2021/08/25 10:57:16;;;;;;;4.00;2.10;;;;;;;;;;6125364;23;19998;-70
2021/08/25 10:59:42;;;;;;;3.55;2.03;;;;;;;;;;6099505;23;20316;-68
2021/08/25 11:02:07;;;;;;;2.53;1.67;;;;;;;;;;6124734;23;20006;-68
2021/08/25 11:04:33;;;;;;;4.68;1.80;;;;;;;;;;6125124;23;20463;-68
2021/08/25 11:07:02;;;;;;;5.00;1.77;;;;;;;;;;6125219;23;20029;-71
2021/08/25 11:09:27;;;;;;;;;;;;;;;;;;6125504;23;20073;-69
2021/08/25 11:11:54;;;;;;;3.23;1.70;;;;;;;;;;6123938;23;20318;-67
2021/08/25 11:14:28;;;;;;;3.08;1.65;;;;;;;;;;6121951;23;20707;-69
2021/08/25 11:16:55;;;;;;;5.55;1.90;;;;;;;;;;6124744;23;20335;-69
2021/08/25 11:19:25;;;;;;;5.82;1.90;;;;;;;;;;6125058;23;20032;-71
2021/08/25 11:21:50;;;;;;;2.92;2.17;;;;;;;;;;6124257;23;20711;-67
2021/08/25 11:24:16;;;;;;;3.60;1.52;;;;;;;;;;6123961;23;20012;-70
2021/08/25 11:26:41;;;;;;;2.13;1.60;;;;;;;;;;6124964;23;20009;-70
2021/08/25 11:29:25;;;;;;;3.58;1.95;;;;;;;;;;6092619;23;20011;-71
2021/08/25 11:31:52;;;;;;;2.80;1.73;;;;;;;;;;6123390;23;20085;-71
2021/08/25 11:34:18;;;;;;;5.05;1.80;;;;;;;;;;6123757;23;20001;-71
2021/08/25 11:36:57;;;;;;;2.80;1.50;;;;;;;;;;6120841;23;20328;-68
2021/08/25 11:39:22;;;;;;;1.87;1.57;;;;;;;;;;6124683;23;20454;-70
2021/08/25 11:41:50;;;;;;;3.05;1.50;;;;;;;;;;6123306;23;20033;-67
2021/08/25 11:44:31;;;;;;;3.95;1.80;;;;;;;;;;6124775;23;19994;-69
2021/08/25 11:47:08;;;;;;;1.90;1.45;;;;;;;;;;6124787;23;20020;-71
2021/08/25 11:49:33;;;;;;;5.50;1.73;;;;;;;;;;6125380;23;20327;-68
2021/08/25 11:51:59;;;;;;;6.47;1.88;;;;;;;;;;6124477;23;20006;-74
2021/08/25 11:54:24;;;;;;;2.92;1.50;;;;;;;;;;6124573;23;20503;-69
2021/08/25 11:56:49;;;;;;;4.95;2.17;;;;;;;;;;6124310;23;20302;-68
2021/08/25 11:59:15;;;;;;;1.95;1.60;;;;;;;;;;6124217;23;20074;-68
2021/08/25 12:01:40;;;;;;;6.43;1.48;;;;;;;;;;6124127;23;20459;-69
2021/08/25 12:04:05;;;;;;;7.38;1.70;;;;;;;;;;6124162;23;20018;-70
2021/08/25 12:06:43;;;;;;;2.70;1.60;;;;;;;;;;6124420;23;20009;-70
2021/08/25 12:09:08;;;;;;;3.25;1.50;;;;;;;;;;6098121;23;20375;-69
2021/08/25 12:11:52;;;;;;;2.33;1.40;;;;;;;;;;6123538;23;20049;-69
2021/08/25 12:14:18;;;;;;;4.63;1.60;;;;;;;;;;6124259;23;20002;-69
2021/08/25 12:17:00;;;;;;;3.35;1.27;;;;;;;;;;6074698;23;20006;-70
2021/08/25 12:19:25;;;;;;;3.95;1.67;;;;;;;;;;6124323;23;20005;-69
2021/08/25 12:21:50;;;;;;;3.03;1.80;;;;;;;;;;6123275;23;20002;-67
2021/08/25 12:24:17;;;;;;;4.00;1.90;;;;;;;;;;6098160;23;20088;-70
2021/08/25 12:26:55;;;;;;;3.25;1.55;;;;;;;;;;6124218;23;20006;-69
2021/08/25 12:29:31;;;;;;;4.68;1.70;;;;;;;;;;6124784;23;20106;-74
2021/08/25 12:31:57;;;;;;;3.40;1.77;;;;;;;;;;6098627;23;20013;-71
2021/08/25 12:34:23;;;;;;;5.65;1.75;;;;;;;;;;6098665;23;20427;-71
2021/08/25 12:36:53;;;;;;;4.00;1.80;;;;;;;;;;6123938;23;20074;-70
2021/08/25 12:39:22;;;;;;;4.25;1.60;;;;;;;;;;6122961;23;20008;-70
2021/08/25 12:41:47;;;;;;;;;;;;;;;;;;6092627;23;20352;-70
2021/08/25 12:44:13;;;;;;;4.15;1.92;;;;;;;;;;6122871;23;19901;-69
2021/08/25 12:46:52;;;;;;;3.28;1.50;;;;;;;;;;6124747;23;20008;-72
2021/08/25 12:49:18;;;;;;;2.83;1.77;;;;;;;;;;6074596;23;20383;-72
2021/08/25 12:51:44;;;;;;;3.22;2.10;;;;;;;;;;6098391;23;20014;-73
2021/08/25 12:54:10;;;;;;;2.22;1.65;;;;;;;;;;6124707;23;20002;-71
2021/08/25 12:56:36;;;;;;;4.93;1.67;;;;;;;;;;6099009;23;20003;-71
2021/08/25 12:59:02;;;;;;;3.53;1.70;;;;;;;;;;6124842;23;20008;-72
2021/08/25 13:01:27;;;;;;;4.90;1.83;;;;;;;;;;6098523;23;20002;-66
2021/08/25 13:03:53;;;;;;;3.53;1.80;;;;;;;;;;6069460;23;20028;-71
2021/08/25 13:06:18;;;;;;;4.45;1.45;;;;;;;;;;6095178;23;20064;-71
2021/08/25 13:08:44;;;;;;;10.13;2.58;;;;;;;;;;6096196;23;19995;-70
2021/08/25 13:11:09;;;;;;;5.95;2.13;;;;;;;;;;6095053;23;20003;-68
2021/08/25 13:13:35;;;;;;;2.15;1.63;;;;;;;;;;6095325;23;20069;-69
2021/08/25 13:16:01;;;;;;;2.65;1.40;;;;;;;;;;6093875;23;20003;-71
2021/08/25 13:18:27;;;;;;;2.55;1.50;;;;;;;;;;6095380;23;20308;-74
2021/08/25 13:20:53;;;;;;;4.55;1.70;;;;;;;;;;6094891;23;20006;-69
2021/08/25 13:23:19;;;;;;;6.97;1.80;;;;;;;;;;6095344;23;20052;-71
2021/08/25 13:25:44;;;;;;;9.10;1.80;;;;;;;;;;6095223;23;20164;-72
2021/08/25 13:28:10;;;;;;;6.63;1.90;;;;;;;;;;6094480;23;20022;-74
2021/08/25 13:30:37;;;;;;;4.80;2.00;;;;;;;;;;6095076;23;20529;-72
2021/08/25 13:33:03;;;;;;;8.52;1.80;;;;;;;;;;6095421;23;20013;-71
2021/08/25 13:35:28;;;;;;;8.93;1.85;;;;;;;;;;6095410;23;20002;-73
2021/08/25 13:37:53;;;;;;;3.08;1.65;;;;;;;;;;6090139;23;20050;-71
2021/08/25 13:40:19;;;;;;;7.03;2.00;;;;;;;;;;6096831;23;20033;-71
2021/08/25 13:42:44;;;;;;;4.25;1.42;;;;;;;;;;6093127;23;20442;-73
2021/08/25 13:45:10;;;;;;;7.28;1.95;;;;;;;;;;6097346;23;20006;-74
2021/08/25 13:47:37;;;;;;;6.20;1.88;;;;;;;;;;6096622;23;19995;-72
2021/08/25 13:50:03;;;;;;;2.85;1.65;;;;;;;;;;6095939;23;20006;-72
2021/08/25 13:52:28;;;;;;;7.18;1.70;;;;;;;;;;6096153;23;20038;-72
2021/08/25 13:54:54;;;;;;;5.68;2.08;;;;;;;;;;6096094;23;20452;-72
2021/08/25 13:57:19;;;;;;;3.13;1.75;;;;;;;;;;6096552;23;20003;-71
2021/08/25 13:59:44;;;;;;;5.18;2.10;;;;;;;;;;6095534;23;20332;-73
2021/08/25 14:02:10;;;;;;;6.28;2.35;;;;;;;;;;6094810;23;20038;-68
2021/08/25 14:04:36;;;;;;;6.45;2.10;;;;;;;;;;6120449;23;20074;-71
2021/08/25 14:07:01;;;;;;;3.47;1.73;;;;;;;;;;6125998;23;20088;-76
2021/08/25 14:09:28;;;;;;;7.35;1.75;;;;;;;;;;6124973;23;20081;-75
2021/08/25 14:11:54;;;;;;;4.20;1.83;;;;;;;;;;6097336;23;20009;-75
2021/08/25 14:14:20;;;;;;;13.52;2.65;;;;;;;;;;6125126;23;20006;-72
2021/08/25 14:16:46;;;;;;;2.92;1.67;;;;;;;;;;6125812;23;20005;-71
2021/08/25 14:19:12;;;;;;;2.40;1.60;;;;;;;;;;6125678;23;19998;-68
2021/08/25 14:21:37;;;;;;;6.38;2.08;;;;;;;;;;6125427;23;20012;-67
2021/08/25 14:24:03;;;;;;;3.10;1.38;;;;;;;;;;6125687;23;20827;-67
2021/08/25 14:26:29;;;;;;;5.13;1.73;;;;;;;;;;6126035;23;20003;-69
2021/08/25 14:28:55;;;;;;;7.63;1.85;;;;;;;;;;6125156;23;20083;-69
2021/08/25 14:31:20;;;;;;;3.90;1.80;;;;;;;;;;6099396;23;20426;-69
2021/08/25 14:33:46;;;;;;;2.53;1.90;;;;;;;;;;6125310;23;20092;-75
2021/08/25 14:36:12;;;;;;;4.47;1.88;;;;;;;;;;6126432;23;20002;-75
2021/08/25 14:38:38;;;;;;;3.92;1.95;;;;;;;;;;6126838;23;20024;-74
2021/08/25 14:41:04;;;;;;;6.18;2.05;;;;;;;;;;6126982;23;20471;-75